Time;durP1;ratioP1;P1;durP2;ratioP2;P2;SDS_P1;SDS_P2;PMS_P1;PMS_P2;Temp;Humidity;BMP_temperature;BMP_pressure;BME280_temperature;BME280_humidity;BME280_pressure;Samples;Min_cycle;Max_cycle;Signal;HPM_P1;HPM_P2
2021/06/16 00:00:14;;;;;;;0.50;0.30;;;;;;;21.14;88.45;100243.09;5035311;28;20478;-52
2021/06/16 00:02:42;;;;;;;0.50;0.20;;;;;;;20.98;89.19;100237.94;5034921;28;20463;-52
2021/06/16 00:05:11;;;;;;;0.60;0.50;;;;;;;21.02;89.09;100240.41;5012085;28;21067;-53
2021/06/16 00:07:38;;;;;;;0.60;0.60;;;;;;;20.98;89.25;100240.63;5034494;28;20501;-52
2021/06/16 00:10:06;;;;;;;1.00;1.00;;;;;;;21.15;88.80;100238.53;5034816;28;20444;-52
2021/06/16 00:12:34;;;;;;;0.50;0.20;;;;;;;20.76;90.77;100232.34;5034697;28;20964;-52
2021/06/16 00:15:03;;;;;;;0.50;0.30;;;;;;;20.84;90.87;100239.91;5034536;28;20562;-52
2021/06/16 00:17:30;;;;;;;0.50;0.30;;;;;;;20.99;89.52;100231.56;5021201;28;20496;-52
2021/06/16 00:19:56;;;;;;;0.60;0.40;;;;;;;20.52;91.65;100236.78;5034243;28;20557;-52
2021/06/16 00:22:23;;;;;;;0.50;0.30;;;;;;;20.47;92.47;100242.50;5034199;28;21037;-52
2021/06/16 00:24:50;;;;;;;0.50;0.20;;;;;;;20.63;91.41;100235.06;5034425;28;20472;-52
2021/06/16 00:27:16;;;;;;;0.60;0.57;;;;;;;20.66;91.14;100234.81;5034299;28;20521;-52
2021/06/16 00:29:43;;;;;;;0.60;0.50;;;;;;;20.65;91.28;100233.09;5032667;28;20470;-54
2021/06/16 00:32:10;;;;;;;0.50;0.33;;;;;;;20.35;92.48;100237.94;5033885;28;20487;-53
2021/06/16 00:34:38;;;;;;;2.10;1.90;;;;;;;20.34;92.58;100239.78;5028214;28;20527;-52
2021/06/16 00:37:05;;;;;;;1.70;0.60;;;;;;;20.46;91.92;100234.53;5030892;28;20835;-52
2021/06/16 00:39:32;;;;;;;0.50;0.20;;;;;;;20.32;92.33;100233.63;5034416;28;20455;-52
2021/06/16 00:42:01;;;;;;;1.90;1.80;;;;;;;20.37;92.56;100236.00;5032880;28;20451;-52
2021/06/16 00:44:27;;;;;;;0.50;0.30;;;;;;;20.32;92.83;100236.31;5034309;28;20499;-52
2021/06/16 00:46:54;;;;;;;0.50;0.20;;;;;;;20.33;92.75;100229.94;5020232;28;20837;-53
2021/06/16 00:49:21;;;;;;;0.50;0.20;;;;;;;20.25;93.35;100229.59;5033687;28;20455;-53
2021/06/16 00:51:47;;;;;;;0.60;0.50;;;;;;;20.14;93.49;100221.38;5033659;28;20459;-52
2021/06/16 00:54:14;;;;;;;0.50;0.43;;;;;;;20.33;92.94;100227.25;5033958;28;20467;-52
2021/06/16 00:56:43;;;;;;;0.50;0.30;;;;;;;20.30;92.83;100224.78;5033558;28;20511;-52
2021/06/16 00:59:10;;;;;;;0.50;0.20;;;;;;;20.43;92.06;100218.56;5033582;28;20455;-53
2021/06/16 01:01:43;;;;;;;2.20;2.10;;;;;;;20.12;93.74;100223.34;5032618;28;20463;-53
2021/06/16 01:04:23;;;;;;;0.50;0.20;;;;;;;20.17;93.00;100226.59;5031334;28;20478;-52
2021/06/16 01:06:57;;;;;;;0.73;0.73;;;;;;;20.17;93.30;100223.03;5008184;28;21077;-53
2021/06/16 01:09:34;;;;;;;0.50;0.30;;;;;;;20.05;93.98;100219.34;5033487;28;20443;-53
2021/06/16 01:12:24;;;;;;;0.50;0.30;;;;;;;20.17;93.80;100228.44;5033453;28;20458;-52
2021/06/16 01:14:54;;;;;;;0.50;0.20;;;;;;;20.00;93.81;100224.16;5033428;28;20829;-52
2021/06/16 01:17:30;;;;;;;0.50;0.50;;;;;;;19.92;93.57;100218.47;5019686;28;20989;-53
2021/06/16 01:19:59;;;;;;;0.50;0.20;;;;;;;19.85;95.33;100223.38;5033735;28;21035;-52
2021/06/16 01:22:35;;;;;;;0.50;0.20;;;;;;;20.00;94.01;100224.16;5033485;28;20452;-52
2021/06/16 01:25:07;;;;;;;0.50;0.50;;;;;;;20.55;91.70;100223.91;5033279;28;20960;-53
2021/06/16 01:27:34;;;;;;;0.50;0.30;;;;;;;20.13;93.72;100222.34;5033653;28;20440;-52
2021/06/16 01:30:03;;;;;;;4.00;2.30;;;;;;;19.81;95.13;100225.44;5033540;28;20452;-53
2021/06/16 01:32:30;;;;;;;0.50;0.20;;;;;;;19.77;95.17;100228.47;5033313;28;20447;-52
2021/06/16 01:34:57;;;;;;;0.50;0.30;;;;;;;19.90;94.92;100221.25;5024585;28;20480;-52
2021/06/16 01:37:24;;;;;;;0.50;0.20;;;;;;;19.70;95.17;100216.34;5032469;28;20487;-52
2021/06/16 01:39:53;;;;;;;0.50;0.20;;;;;;;19.64;96.11;100222.16;5032952;28;20505;-52
2021/06/16 01:42:22;;;;;;;0.80;0.80;;;;;;;19.46;97.19;100211.63;5032704;28;20479;-52
2021/06/16 01:44:53;;;;;;;0.50;0.30;;;;;;;19.44;97.74;100218.06;5032653;28;21061;-53
2021/06/16 01:47:22;;;;;;;0.50;0.40;;;;;;;19.55;96.97;100226.31;5032827;28;20477;-53
2021/06/16 01:49:53;;;;;;;0.50;0.30;;;;;;;19.64;96.34;100209.53;5032473;28;20891;-52
2021/06/16 01:52:22;;;;;;;0.50;0.40;;;;;;;19.31;97.59;100214.44;5032654;28;20440;-52
2021/06/16 01:54:50;;;;;;;0.50;0.20;;;;;;;19.30;98.28;100216.25;5032619;28;20464;-52
2021/06/16 01:57:18;;;;;;;0.50;0.30;;;;;;;19.29;98.01;100210.97;5032835;28;20495;-53
2021/06/16 01:59:46;;;;;;;8.83;2.20;;;;;;;19.11;98.76;100215.75;5032813;28;20501;-52
2021/06/16 02:02:12;;;;;;;5.30;1.50;;;;;;;19.03;98.50;100213.53;5032264;28;20478;-53
2021/06/16 02:04:39;;;;;;;1.47;0.97;;;;;;;19.01;99.30;100209.22;5030141;28;20901;-52
2021/06/16 02:07:12;;;;;;;0.50;0.30;;;;;;;19.34;97.69;100204.34;5032656;28;20793;-53
2021/06/16 02:09:39;;;;;;;0.50;0.30;;;;;;;19.11;98.02;100204.97;5032505;28;20435;-52
2021/06/16 02:12:10;;;;;;;0.50;0.30;;;;;;;18.85;100.00;100210.22;5032695;28;20440;-52
2021/06/16 02:14:39;;;;;;;0.50;0.20;;;;;;;19.01;100.00;100210.09;5032318;28;20659;-52
2021/06/16 02:17:11;;;;;;;0.40;0.20;;;;;;;19.05;99.32;100208.06;5032626;28;20537;-52
2021/06/16 02:19:40;;;;;;;0.80;0.80;;;;;;;18.97;99.96;100202.31;5032610;28;20810;-52
2021/06/16 02:22:07;;;;;;;0.50;0.30;;;;;;;18.90;100.00;100199.13;5032399;28;20448;-52
2021/06/16 02:24:35;;;;;;;0.50;0.50;;;;;;;18.95;99.53;100199.72;5031916;28;20541;-52
2021/06/16 02:27:03;;;;;;;0.50;0.20;;;;;;;19.01;99.67;100207.38;5031910;28;20447;-52
2021/06/16 02:29:30;;;;;;;1.37;1.37;;;;;;;19.06;99.27;100202.59;5006525;28;20521;-52
2021/06/16 02:31:58;;;;;;;1.17;1.17;;;;;;;18.79;100.00;100204.38;5018534;28;20449;-52
2021/06/16 02:34:29;;;;;;;2.93;1.47;;;;;;;18.80;100.00;100189.94;5027660;28;20942;-52
2021/06/16 02:37:01;;;;;;;0.50;0.20;;;;;;;18.80;99.55;100200.72;5026900;28;20527;-52
2021/06/16 02:39:40;;;;;;;1.70;1.27;;;;;;;18.64;100.00;100193.63;5031787;28;20447;-52
2021/06/16 02:42:09;;;;;;;0.50;0.30;;;;;;;18.57;100.00;100200.31;5032347;28;20520;-52
2021/06/16 02:44:41;;;;;;;0.57;0.57;;;;;;;18.55;100.00;100202.22;5032243;28;21000;-51
2021/06/16 02:47:08;;;;;;;0.50;0.30;;;;;;;18.57;100.00;100184.16;5032041;28;20886;-51
2021/06/16 02:49:43;;;;;;;1.57;1.47;;;;;;;18.72;100.00;100195.81;5031591;28;20968;-51
2021/06/16 02:52:14;;;;;;;0.77;0.77;;;;;;;18.67;100.00;100194.38;5031777;28;20467;-51
2021/06/16 02:54:44;;;;;;;3.23;0.60;;;;;;;18.51;100.00;100187.25;5031692;28;20795;-51
2021/06/16 02:57:19;;;;;;;1.43;1.33;;;;;;;18.52;100.00;100186.28;5031661;28;20499;-52
2021/06/16 02:59:47;;;;;;;0.50;0.20;;;;;;;18.71;100.00;100182.44;5031848;28;20450;-53
2021/06/16 03:02:16;;;;;;;0.47;0.20;;;;;;;18.56;100.00;100171.66;5032336;28;20566;-51
2021/06/16 03:04:46;;;;;;;0.70;0.70;;;;;;;18.50;100.00;100173.84;5027426;28;20479;-51
2021/06/16 03:07:14;;;;;;;0.50;0.40;;;;;;;18.45;100.00;100181.34;5031738;28;20448;-51
2021/06/16 03:09:44;;;;;;;0.50;0.30;;;;;;;18.37;100.00;100173.78;5031474;28;20452;-52
2021/06/16 03:12:12;;;;;;;0.50;0.20;;;;;;;18.41;100.00;100166.38;5031659;28;20458;-51
2021/06/16 03:14:40;;;;;;;1.03;1.03;;;;;;;18.37;100.00;100170.22;5031308;28;20840;-51
2021/06/16 03:17:09;;;;;;;0.50;0.20;;;;;;;18.53;100.00;100169.16;5018989;28;20510;-52
2021/06/16 03:19:37;;;;;;;1.37;0.60;;;;;;;18.43;100.00;100173.38;5030905;28;20900;-50
2021/06/16 03:22:05;;;;;;;0.50;0.20;;;;;;;18.29;100.00;100173.38;5031681;28;20448;-50
2021/06/16 03:24:33;;;;;;;0.50;0.20;;;;;;;18.28;100.00;100166.28;5006360;28;20474;-51
2021/06/16 03:27:01;;;;;;;1.17;1.13;;;;;;;18.30;100.00;100172.41;5035134;28;20538;-51
2021/06/16 03:29:29;;;;;;;23.53;1.70;;;;;;;18.30;100.00;100169.72;5034049;28;20505;-53
2021/06/16 03:31:57;;;;;;;0.77;0.77;;;;;;;18.22;100.00;100175.56;5035059;28;20474;-51
2021/06/16 03:34:24;;;;;;;0.50;0.30;;;;;;;18.34;100.00;100174.81;5031021;28;20468;-51
2021/06/16 03:36:52;;;;;;;0.50;0.30;;;;;;;18.21;100.00;100176.53;5030237;28;20541;-51
2021/06/16 03:39:19;;;;;;;0.40;0.20;;;;;;;18.05;100.00;100178.44;5035269;28;20466;-51
2021/06/16 03:41:47;;;;;;;0.70;0.70;;;;;;;17.90;100.00;100182.94;5035290;28;20451;-50
2021/06/16 03:44:15;;;;;;;0.50;0.20;;;;;;;17.93;100.00;100180.06;5034943;28;20468;-50
2021/06/16 03:46:43;;;;;;;0.73;0.73;;;;;;;18.03;100.00;100181.22;5034968;28;20527;-51
2021/06/16 03:49:12;;;;;;;0.60;0.60;;;;;;;18.12;100.00;100177.13;5035498;28;20956;-50
2021/06/16 03:51:43;;;;;;;0.50;0.33;;;;;;;18.13;100.00;100181.53;5034939;28;20506;-51
2021/06/16 03:54:11;;;;;;;0.83;0.83;;;;;;;18.11;100.00;100179.91;5033985;28;20503;-51
2021/06/16 03:56:42;;;;;;;0.50;0.20;;;;;;;18.29;100.00;100178.75;5034879;28;20502;-54
2021/06/16 03:59:11;;;;;;;0.50;0.40;;;;;;;18.30;100.00;100173.28;5035206;28;20448;-51
2021/06/16 04:01:42;;;;;;;0.50;0.30;;;;;;;18.51;100.00;100183.69;5034713;28;20478;-51
2021/06/16 04:04:11;;;;;;;0.40;0.20;;;;;;;18.38;100.00;100175.50;5032907;28;20467;-51
2021/06/16 04:06:42;;;;;;;0.50;0.30;;;;;;;18.47;100.00;100177.59;5034066;28;20439;-51
2021/06/16 04:09:10;;;;;;;0.60;0.60;;;;;;;18.73;100.00;100172.44;5034843;28;20830;-51
2021/06/16 04:11:38;;;;;;;0.83;0.67;;;;;;;18.76;100.00;100174.91;5009689;28;20444;-51
2021/06/16 04:14:04;;;;;;;0.47;0.30;;;;;;;18.93;100.00;100169.31;5034497;28;20988;-51
2021/06/16 04:16:32;;;;;;;0.50;0.47;;;;;;;18.88;100.00;100174.13;5034127;28;20872;-51
2021/06/16 04:18:59;;;;;;;0.50;0.30;;;;;;;18.93;100.00;100169.31;5034571;28;20451;-51
2021/06/16 04:21:26;;;;;;;0.70;0.70;;;;;;;18.99;100.00;100168.91;5034573;28;20447;-51
2021/06/16 04:23:53;;;;;;;0.40;0.20;;;;;;;19.04;100.00;100163.22;5034147;28;20568;-51
2021/06/16 04:26:22;;;;;;;0.50;0.33;;;;;;;19.11;100.00;100165.41;5034668;28;20447;-51
2021/06/16 04:28:49;;;;;;;0.50;0.37;;;;;;;19.19;100.00;100171.19;5034291;28;20486;-51
2021/06/16 04:31:17;;;;;;;0.47;0.20;;;;;;;19.26;100.00;100168.94;5034271;28;20479;-51
2021/06/16 04:33:44;;;;;;;0.40;0.20;;;;;;;19.22;100.00;100168.28;5034145;28;20535;-51
2021/06/16 04:36:10;;;;;;;0.40;0.20;;;;;;;19.32;100.00;100164.94;5022587;28;20451;-50
2021/06/16 04:38:37;;;;;;;1.23;1.20;;;;;;;19.47;100.00;100166.66;5033881;28;20551;-52
2021/06/16 04:41:04;;;;;;;0.40;0.20;;;;;;;19.59;100.00;100167.66;5034143;28;20967;-51
2021/06/16 04:43:31;;;;;;;0.43;0.30;;;;;;;19.73;100.00;100162.19;5034108;28;20931;-52
2021/06/16 04:45:58;;;;;;;0.50;0.43;;;;;;;19.77;99.26;100167.28;5033681;28;20487;-51
2021/06/16 04:48:25;;;;;;;0.70;0.60;;;;;;;19.92;99.03;100159.97;5033596;28;20933;-51
2021/06/16 04:50:51;;;;;;;0.50;0.20;;;;;;;20.18;97.06;100171.63;5033887;28;20906;-52
2021/06/16 04:53:18;;;;;;;0.43;0.30;;;;;;;20.22;96.18;100158.78;5034064;28;20521;-51
2021/06/16 04:55:45;;;;;;;0.83;0.83;;;;;;;20.21;96.26;100166.03;5034116;28;20472;-52
2021/06/16 04:58:11;;;;;;;0.50;0.30;;;;;;;20.25;95.61;100166.66;5033723;28;21019;-51
2021/06/16 05:00:39;;;;;;;0.50;0.30;;;;;;;20.28;95.83;100159.19;5033600;28;20486;-51
2021/06/16 05:03:06;;;;;;;0.40;0.20;;;;;;;20.51;94.70;100156.72;5033457;28;20506;-51
2021/06/16 05:05:32;;;;;;;0.50;0.40;;;;;;;20.62;94.11;100159.53;5031252;28;20468;-51
2021/06/16 05:07:59;;;;;;;0.50;0.40;;;;;;;20.90;93.18;100156.53;5033783;28;20451;-52
2021/06/16 05:10:26;;;;;;;0.50;0.30;;;;;;;20.76;94.20;100151.28;5033666;28;20444;-52
2021/06/16 05:12:52;;;;;;;0.60;0.50;;;;;;;21.26;92.20;100160.25;5033439;28;20444;-52
2021/06/16 05:15:19;;;;;;;0.50;0.20;;;;;;;21.46;91.23;100164.13;5033795;28;20530;-53
2021/06/16 05:17:46;;;;;;;0.50;0.20;;;;;;;21.49;91.24;100153.94;5033408;28;20541;-52
2021/06/16 05:20:13;;;;;;;0.50;0.30;;;;;;;21.56;91.03;100163.31;5033922;28;20459;-52
2021/06/16 05:22:41;;;;;;;0.83;0.83;;;;;;;21.55;90.31;100158.03;5033360;28;20479;-52
2021/06/16 05:25:10;;;;;;;0.50;0.30;;;;;;;21.38;91.49;100159.31;5033210;28;20973;-51
2021/06/16 05:27:38;;;;;;;0.60;0.33;;;;;;;21.52;90.54;100160.97;5032097;28;20502;-51
2021/06/16 05:30:06;;;;;;;0.50;0.30;;;;;;;21.88;88.96;100162.69;5032040;28;20447;-51
2021/06/16 05:32:35;;;;;;;1.00;1.00;;;;;;;21.78;88.97;100169.78;5032787;28;20459;-52
2021/06/16 05:35:03;;;;;;;0.50;0.30;;;;;;;22.16;88.18;100158.72;5022742;28;20535;-51
2021/06/16 05:37:30;;;;;;;0.50;0.50;;;;;;;22.35;87.16;100161.69;5031969;28;20491;-51
2021/06/16 05:39:56;;;;;;;0.60;0.40;;;;;;;22.61;85.71;100158.72;5033068;28;20479;-52
2021/06/16 05:42:23;;;;;;;0.50;0.20;;;;;;;22.72;85.10;100156.00;5031828;28;20448;-52
2021/06/16 05:44:50;;;;;;;0.73;0.73;;;;;;;22.90;84.82;100156.41;5032672;28;20901;-52
2021/06/16 05:47:16;;;;;;;0.67;0.67;;;;;;;23.30;83.60;100154.84;5031003;28;20444;-53
2021/06/16 05:49:43;;;;;;;0.50;0.30;;;;;;;23.08;84.42;100152.19;5019588;28;20456;-53
2021/06/16 05:52:10;;;;;;;0.70;0.70;;;;;;;23.22;84.66;100154.59;5018520;28;20455;-53
2021/06/16 05:54:38;;;;;;;0.50;0.20;;;;;;;23.48;82.75;100152.44;5032416;28;20980;-52
2021/06/16 05:57:05;;;;;;;0.50;0.27;;;;;;;23.64;81.69;100152.00;5033805;28;20497;-53
2021/06/16 05:59:33;;;;;;;0.50;0.30;;;;;;;23.51;82.73;100146.72;5027161;28;20449;-53
2021/06/16 06:02:01;;;;;;;0.50;0.30;;;;;;;23.55;81.58;100156.31;5027558;28;20436;-53
2021/06/16 06:04:27;;;;;;;1.37;0.97;;;;;;;23.61;81.84;100155.84;5021751;28;20546;-53
2021/06/16 06:06:54;;;;;;;0.50;0.40;;;;;;;23.55;82.52;100156.31;5021391;28;21007;-53
2021/06/16 06:09:22;;;;;;;0.50;0.30;;;;;;;23.78;81.62;100150.84;5022463;28;20472;-53
2021/06/16 06:11:48;;;;;;;2.77;1.13;;;;;;;23.31;82.88;100144.84;5021011;28;20499;-53
2021/06/16 06:14:15;;;;;;;0.50;0.30;;;;;;;23.65;81.76;100151.00;5018541;28;20472;-53
2021/06/16 06:16:41;;;;;;;0.67;0.67;;;;;;;24.45;78.70;100151.28;5024671;28;20467;-53
2021/06/16 06:19:08;;;;;;;0.60;0.60;;;;;;;23.73;81.85;100153.09;5028935;28;20839;-53
2021/06/16 06:21:35;;;;;;;0.90;0.90;;;;;;;24.29;81.38;100159.03;5028376;28;20443;-53
2021/06/16 06:24:04;;;;;;;0.60;0.30;;;;;;;23.85;81.86;100154.75;5023042;28;20571;-54
2021/06/16 06:26:32;;;;;;;0.87;0.47;;;;;;;24.67;79.85;100157.50;5025392;28;20443;-53
2021/06/16 06:28:59;;;;;;;0.50;0.20;;;;;;;24.07;82.31;100161.88;5024688;28;20444;-53
2021/06/16 06:31:25;;;;;;;10.70;1.70;;;;;;;24.71;79.82;100159.81;5017080;28;21599;-53
2021/06/16 06:33:52;;;;;;;16.23;2.43;;;;;;;24.62;79.75;100155.19;5023033;28;20449;-52
2021/06/16 06:36:19;;;;;;;0.50;0.30;;;;;;;24.84;79.20;100159.59;5022007;28;20448;-52
2021/06/16 06:38:47;;;;;;;1.07;1.07;;;;;;;24.98;79.05;100158.34;5015887;28;20496;-52
2021/06/16 06:41:15;;;;;;;2.10;2.00;;;;;;;24.97;79.12;100151.19;5022264;28;20455;-52
2021/06/16 06:43:42;;;;;;;0.50;0.30;;;;;;;25.28;78.49;100150.13;5031792;28;20884;-52
2021/06/16 06:46:08;;;;;;;0.77;0.67;;;;;;;24.70;79.06;100154.53;5021703;28;20526;-52
2021/06/16 06:48:35;;;;;;;1.57;1.13;;;;;;;25.13;78.19;100139.78;5015329;28;21020;-52
2021/06/16 06:51:02;;;;;;;14.13;1.57;;;;;;;24.93;79.01;100139.69;5032128;28;20512;-52
2021/06/16 06:53:29;;;;;;;0.50;0.30;;;;;;;25.69;76.35;100131.81;5017567;28;20459;-52
2021/06/16 06:55:59;;;;;;;2.20;2.10;;;;;;;25.21;77.57;100132.63;5032036;28;20480;-53
2021/06/16 06:58:26;;;;;;;0.60;0.50;;;;;;;25.35;78.49;100136.78;5031096;28;20495;-53
2021/06/16 07:00:52;;;;;;;0.50;0.30;;;;;;;25.63;76.63;100135.97;5020204;28;20502;-53
2021/06/16 07:03:19;;;;;;;0.50;0.30;;;;;;;25.44;76.88;100132.38;5025315;28;20503;-53
2021/06/16 07:05:46;;;;;;;0.60;0.40;;;;;;;25.57;76.71;100132.94;5015684;28;20472;-53
2021/06/16 07:08:13;;;;;;;0.50;0.40;;;;;;;25.94;76.59;100131.22;5031130;28;20440;-53
2021/06/16 07:10:39;;;;;;;0.50;0.30;;;;;;;25.82;76.26;100134.25;5032144;28;20452;-53
2021/06/16 07:13:06;;;;;;;4.53;1.60;;;;;;;26.13;74.58;100126.72;5031995;28;20452;-53
2021/06/16 07:15:33;;;;;;;1.00;0.60;;;;;;;26.32;74.19;100120.38;5019377;28;20511;-53
2021/06/16 07:18:00;;;;;;;0.50;0.30;;;;;;;25.49;75.11;100130.91;5018194;28;20487;-53
2021/06/16 07:20:26;;;;;;;15.90;0.87;;;;;;;26.20;74.10;100115.09;5030609;28;20461;-53
2021/06/16 07:22:53;;;;;;;0.93;0.93;;;;;;;26.01;74.53;100119.72;5031708;28;20452;-53
2021/06/16 07:25:21;;;;;;;0.50;0.30;;;;;;;26.16;73.44;100115.53;5032420;28;20468;-53
2021/06/16 07:27:48;;;;;;;0.50;0.30;;;;;;;26.46;71.73;100117.19;5004883;28;20541;-53
2021/06/16 07:30:16;;;;;;;1.10;1.10;;;;;;;25.98;73.67;100113.56;5031934;28;20498;-53
2021/06/16 07:32:43;;;;;;;0.60;0.50;;;;;;;26.00;73.77;100116.13;5004994;28;20455;-55
2021/06/16 07:35:11;;;;;;;2.10;1.90;;;;;;;26.02;74.40;100110.53;5031798;28;20524;-54
2021/06/16 07:37:37;;;;;;;0.50;0.40;;;;;;;25.93;75.03;100104.97;5032171;28;20491;-54
2021/06/16 07:40:08;;;;;;;0.50;0.30;;;;;;;26.35;73.90;100098.25;5019088;28;20523;-54
2021/06/16 07:42:36;;;;;;;0.50;0.30;;;;;;;27.15;71.99;100100.31;5032467;28;20490;-54
2021/06/16 07:45:05;;;;;;;0.90;0.50;;;;;;;27.11;71.15;100104.34;5031434;28;20476;-54
2021/06/16 07:47:31;;;;;;;0.50;0.30;;;;;;;26.96;70.00;100094.94;5022096;28;20426;-54
2021/06/16 07:49:58;;;;;;;1.00;0.97;;;;;;;26.44;73.16;100095.50;5025570;28;20451;-54
2021/06/16 07:52:27;;;;;;;0.50;0.23;;;;;;;26.82;72.80;100104.50;5031034;28;20509;-53
2021/06/16 07:54:54;;;;;;;0.60;0.50;;;;;;;26.73;71.78;100103.56;5031095;28;20525;-53
2021/06/16 07:57:22;;;;;;;0.50;0.40;;;;;;;26.68;70.80;100094.97;5031066;28;20426;-53
2021/06/16 07:59:48;;;;;;;0.87;0.87;;;;;;;27.23;71.08;100094.91;5015247;28;20819;-53
2021/06/16 08:02:15;;;;;;;0.83;0.83;;;;;;;26.65;71.30;100092.53;5017803;28;20480;-53
2021/06/16 08:04:42;;;;;;;0.50;0.30;;;;;;;27.09;70.19;100095.44;5017487;28;20502;-53
2021/06/16 08:07:12;;;;;;;0.50;0.20;;;;;;;27.09;68.91;100095.44;5026121;28;20479;-53
2021/06/16 08:09:42;;;;;;;0.70;0.67;;;;;;;27.20;69.49;100091.66;5014485;28;20449;-53
2021/06/16 08:12:10;;;;;;;0.50;0.30;;;;;;;27.19;70.74;100087.22;5024740;28;21094;-53
2021/06/16 08:14:38;;;;;;;0.50;0.27;;;;;;;26.65;71.04;100091.69;5027588;28;20446;-53
2021/06/16 08:17:06;;;;;;;0.50;0.30;;;;;;;26.94;70.62;100089.63;5021148;28;20496;-53
2021/06/16 08:19:34;;;;;;;2.20;0.63;;;;;;;26.99;70.35;100086.44;5031676;28;21122;-53
2021/06/16 08:22:02;;;;;;;2.73;0.73;;;;;;;26.55;70.85;100084.41;5033805;28;20475;-53
2021/06/16 08:24:29;;;;;;;2.13;1.17;;;;;;;26.76;71.18;100070.53;5034512;28;20471;-53
2021/06/16 08:26:56;;;;;;;0.60;0.30;;;;;;;27.15;69.02;100083.94;5035294;28;20935;-53
2021/06/16 08:29:22;;;;;;;0.50;0.30;;;;;;;27.21;68.78;100083.31;5028644;28;20445;-53
2021/06/16 08:31:49;;;;;;;0.60;0.40;;;;;;;27.50;68.15;100079.47;5028146;28;20478;-53
2021/06/16 08:34:15;;;;;;;1.10;0.97;;;;;;;27.72;68.14;100074.41;5031765;28;20997;-53
2021/06/16 08:36:45;;;;;;;0.50;0.30;;;;;;;27.40;68.21;100079.53;5028045;28;20484;-53
2021/06/16 08:39:20;;;;;;;1.73;1.57;;;;;;;27.60;68.08;100070.16;5009492;28;20963;-53
2021/06/16 08:41:47;;;;;;;2.27;1.70;;;;;;;27.81;66.83;100075.28;5030627;28;20470;-53
2021/06/16 08:44:14;;;;;;;0.50;0.27;;;;;;;27.81;66.29;100079.91;5045979;22;20503;-56
2021/06/16 08:46:42;;;;;;;0.60;0.50;;;;;;;27.70;66.39;100070.97;5036096;28;20460;-54
2021/06/16 08:49:09;;;;;;;0.50;0.30;;;;;;;28.01;66.00;100078.69;5053439;28;20488;-54
2021/06/16 08:51:37;;;;;;;2.30;1.33;;;;;;;27.89;64.53;100075.38;5053774;28;20451;-54
2021/06/16 08:54:05;;;;;;;0.50;0.30;;;;;;;27.79;66.11;100068.28;5069168;28;20426;-54
2021/06/16 08:56:33;;;;;;;0.60;0.53;;;;;;;28.15;62.68;100063.56;5054102;28;20454;-54
2021/06/16 08:58:59;;;;;;;0.50;0.30;;;;;;;28.60;63.70;100069.63;5053840;28;20461;-54
2021/06/16 09:01:26;;;;;;;1.53;1.53;;;;;;;28.60;64.57;100066.03;5054093;28;20512;-54
2021/06/16 09:03:53;;;;;;;0.53;0.43;;;;;;;27.88;63.54;100068.19;5054061;28;20443;-54
2021/06/16 09:06:28;;;;;;;1.90;0.73;;;;;;;28.35;63.96;100064.19;5046190;28;20474;-55
2021/06/16 09:09:05;;;;;;;0.50;0.30;;;;;;;28.43;62.58;100061.53;5053993;28;20462;-55
2021/06/16 09:11:42;;;;;;;0.60;0.60;;;;;;;28.32;63.19;100063.50;5054136;28;20443;-55
2021/06/16 09:14:18;;;;;;;0.50;0.30;;;;;;;28.17;62.03;100064.25;5054121;28;20475;-54
2021/06/16 09:16:45;;;;;;;0.70;0.67;;;;;;;28.65;61.47;100060.09;5044479;28;20493;-54
2021/06/16 09:19:22;;;;;;;0.50;0.30;;;;;;;28.95;59.50;100055.91;5050819;28;20969;-56
2021/06/16 09:21:56;;;;;;;0.50;0.30;;;;;;;29.09;58.53;100060.72;5054711;28;21005;-55
2021/06/16 09:24:22;;;;;;;0.80;0.80;;;;;;;29.70;56.05;100060.25;5054938;28;20858;-55
2021/06/16 09:26:49;;;;;;;0.50;0.30;;;;;;;29.77;56.78;100047.59;5054300;28;20934;-55
2021/06/16 09:29:28;;;;;;;0.60;0.50;;;;;;;29.32;59.28;100055.44;5053914;28;20500;-52
2021/06/16 09:32:04;;;;;;;0.50;0.50;;;;;;;28.77;61.14;100056.84;5039834;28;20470;-54
2021/06/16 09:34:32;;;;;;;0.87;0.80;;;;;;;29.00;59.44;100056.25;5048126;28;20442;-54
2021/06/16 09:37:05;;;;;;;0.60;0.50;;;;;;;28.69;57.26;100050.50;5048365;28;20433;-54
2021/06/16 09:39:32;;;;;;;0.70;0.50;;;;;;;29.16;57.45;100048.91;5053011;28;20495;-54
2021/06/16 09:42:11;;;;;;;0.50;0.50;;;;;;;29.49;55.69;100047.09;5049529;28;20431;-54
2021/06/16 09:44:39;;;;;;;0.50;0.40;;;;;;;29.37;58.18;100050.31;5044247;28;20500;-54
2021/06/16 09:47:12;;;;;;;0.50;0.37;;;;;;;29.35;59.86;100038.69;5052320;28;20840;-54
2021/06/16 09:50:04;;;;;;;0.60;0.53;;;;;;;29.41;59.75;100033.34;5052400;28;20486;-54
2021/06/16 09:52:34;;;;;;;0.50;0.30;;;;;;;29.54;56.43;100046.56;5052902;28;20453;-54
2021/06/16 09:55:05;;;;;;;0.50;0.30;;;;;;;29.67;55.40;100037.84;5052375;28;20474;-54
2021/06/16 09:57:34;;;;;;;0.50;0.30;;;;;;;29.49;56.33;100044.34;5052998;28;20429;-54
2021/06/16 10:00:08;;;;;;;0.50;0.30;;;;;;;29.71;55.17;100026.34;5051521;28;20514;-54
2021/06/16 10:02:37;;;;;;;0.70;0.50;;;;;;;30.11;54.51;100032.78;5052667;28;20450;-54
2021/06/16 10:05:04;;;;;;;0.50;0.50;;;;;;;29.76;56.29;100026.69;5049465;28;20474;-54
2021/06/16 10:07:32;;;;;;;0.50;0.30;;;;;;;29.61;55.06;100035.78;5052432;28;20422;-55
2021/06/16 10:10:01;;;;;;;0.50;0.30;;;;;;;29.78;55.04;100032.00;5052934;28;20819;-54
2021/06/16 10:12:36;;;;;;;0.50;0.30;;;;;;;29.53;54.52;100028.44;5051171;28;20483;-54
2021/06/16 10:15:12;;;;;;;0.50;0.30;;;;;;;30.40;53.77;100015.72;5051988;28;20441;-54
2021/06/16 10:17:40;;;;;;;0.50;0.43;;;;;;;30.74;52.31;100022.78;5037986;28;20563;-54
2021/06/16 10:20:09;;;;;;;0.63;0.60;;;;;;;30.55;51.72;100015.81;5052470;28;20518;-55
2021/06/16 10:22:36;;;;;;;0.50;0.30;;;;;;;30.06;51.09;100024.25;5051577;28;20459;-55
2021/06/16 10:25:04;;;;;;;0.50;0.50;;;;;;;30.78;50.51;100021.38;5052545;28;20466;-57
2021/06/16 10:27:35;;;;;;;0.50;0.30;;;;;;;30.85;50.53;100025.97;5052562;28;20425;-57
2021/06/16 10:30:09;;;;;;;0.50;0.30;;;;;;;30.20;51.65;100020.78;5047983;28;20418;-58
2021/06/16 10:32:40;;;;;;;0.50;0.50;;;;;;;30.75;50.86;100013.50;5051906;28;20429;-58
2021/06/16 10:35:12;;;;;;;0.50;0.30;;;;;;;30.56;50.90;100017.50;5043267;28;20442;-58
2021/06/16 10:37:43;;;;;;;2.83;1.40;;;;;;;30.50;50.44;100018.25;5052713;28;20512;-58
2021/06/16 10:40:12;;;;;;;0.50;0.30;;;;;;;30.82;50.81;100014.47;5050914;28;20465;-58
2021/06/16 10:43:05;;;;;;;0.70;0.70;;;;;;;30.78;50.11;100005.75;5052369;28;20454;-58
2021/06/16 10:45:33;;;;;;;0.80;0.73;;;;;;;30.80;50.68;100005.56;5052121;28;20478;-57
2021/06/16 10:48:06;;;;;;;1.00;0.50;;;;;;;30.00;50.78;100000.22;5052457;28;20450;-57
2021/06/16 10:50:45;;;;;;;0.50;0.30;;;;;;;31.00;49.97;100005.97;5052399;28;20520;-57
2021/06/16 10:53:17;;;;;;;0.50;0.30;;;;;;;31.58;50.29;100007.22;5051856;28;20504;-61
2021/06/16 10:55:56;;;;;;;0.50;0.40;;;;;;;30.77;50.60;100000.47;5054681;28;20474;-61
2021/06/16 10:58:30;;;;;;;0.60;0.40;;;;;;;31.47;50.16;100003.03;5053705;28;20429;-57
2021/06/16 11:01:15;;;;;;;0.60;0.40;;;;;;;31.10;49.57;99998.31;5051136;28;20528;-57
2021/06/16 11:03:51;;;;;;;0.50;0.30;;;;;;;30.64;49.52;100001.03;5052117;28;20857;-57
2021/06/16 11:06:36;;;;;;;1.27;0.93;;;;;;;30.33;51.09;99993.63;5048510;28;20449;-57
2021/06/16 11:09:10;;;;;;;0.80;0.60;;;;;;;30.85;49.10;99998.53;5052058;28;20422;-57
2021/06/16 11:11:46;;;;;;;0.50;0.30;;;;;;;31.14;48.77;99989.56;5026437;28;20433;-57
2021/06/16 11:14:39;;;;;;;0.50;0.37;;;;;;;30.69;49.39;99984.03;5043372;28;20437;-57
2021/06/16 11:17:07;;;;;;;3.30;1.90;;;;;;;31.14;48.33;99983.22;5052067;28;20429;-58
2021/06/16 11:19:36;;;;;;;0.93;0.93;;;;;;;31.86;46.58;99975.34;5052391;28;20969;-58
2021/06/16 11:22:13;;;;;;;0.50;0.30;;;;;;;31.95;46.55;99976.97;5051978;28;20430;-57
2021/06/16 11:25:04;;;;;;;1.23;1.23;;;;;;;32.26;45.17;99976.75;5027044;28;20445;-58
2021/06/16 11:28:10;;;;;;;0.77;0.47;;;;;;;30.96;46.90;99967.88;5051958;28;20476;-57
2021/06/16 11:30:45;;;;;;;0.50;0.40;;;;;;;31.58;45.60;99960.50;5051834;28;20450;-57
2021/06/16 11:33:12;;;;;;;0.50;0.50;;;;;;;32.02;43.03;99963.31;5051677;28;20890;-57